sensor_id;sensor_type;location;lat;lon;timestamp;pressure;altitude;pressure_sealevel;temperature;humidity
74973;BME280;63529;56.320;43.990;2023-02-27T00:02:21;98604.19;;;0.07;73.85
74973;BME280;63529;56.320;43.990;2023-02-27T00:04:47;98600.97;;;0.05;74.02
74973;BME280;63529;56.320;43.990;2023-02-27T00:07:15;98601.19;;;0.04;73.91
74973;BME280;63529;56.320;43.990;2023-02-27T00:09:41;98609.28;;;0.02;74.13
74973;BME280;63529;56.320;43.990;2023-02-27T00:12:08;98604.72;;;-0.03;73.86
74973;BME280;63529;56.320;43.990;2023-02-27T00:14:35;98606.78;;;-0.05;73.91
74973;BME280;63529;56.320;43.990;2023-02-27T00:17:00;98616.09;;;-0.09;73.75
74973;BME280;63529;56.320;43.990;2023-02-27T00:19:26;98622.00;;;-0.13;73.94
74973;BME280;63529;56.320;43.990;2023-02-27T00:21:52;98615.84;;;-0.19;73.87
74973;BME280;63529;56.320;43.990;2023-02-27T00:24:18;98621.97;;;-0.25;73.66
74973;BME280;63529;56.320;43.990;2023-02-27T00:26:44;98610.78;;;-0.32;73.65
74973;BME280;63529;56.320;43.990;2023-02-27T00:29:10;98624.06;;;-0.34;73.79
74973;BME280;63529;56.320;43.990;2023-02-27T00:31:36;98630.13;;;-0.33;74.02
74973;BME280;63529;56.320;43.990;2023-02-27T00:34:02;98631.75;;;-0.32;74.07
74973;BME280;63529;56.320;43.990;2023-02-27T00:36:28;98630.72;;;-0.31;74.06
74973;BME280;63529;56.320;43.990;2023-02-27T00:38:56;98622.84;;;-0.31;73.79
74973;BME280;63529;56.320;43.990;2023-02-27T00:41:24;98629.47;;;-0.29;73.81
74973;BME280;63529;56.320;43.990;2023-02-27T00:43:50;98635.50;;;-0.28;73.61
74973;BME280;63529;56.320;43.990;2023-02-27T00:46:16;98623.66;;;-0.31;73.52
74973;BME280;63529;56.320;43.990;2023-02-27T00:48:44;98633.34;;;-0.31;73.41
74973;BME280;63529;56.320;43.990;2023-02-27T00:51:10;98638.81;;;-0.33;73.47
74973;BME280;63529;56.320;43.990;2023-02-27T00:53:36;98631.75;;;-0.32;73.31
74973;BME280;63529;56.320;43.990;2023-02-27T00:56:02;98632.16;;;-0.35;73.51
74973;BME280;63529;56.320;43.990;2023-02-27T00:58:28;98633.75;;;-0.34;73.55
74973;BME280;63529;56.320;43.990;2023-02-27T01:00:54;98639.22;;;-0.36;73.36
74973;BME280;63529;56.320;43.990;2023-02-27T01:03:20;98637.63;;;-0.37;73.19
74973;BME280;63529;56.320;43.990;2023-02-27T01:05:45;98644.47;;;-0.36;73.33
74973;BME280;63529;56.320;43.990;2023-02-27T01:08:11;98645.28;;;-0.35;73.01
74973;BME280;63529;56.320;43.990;2023-02-27T01:10:37;98646.31;;;-0.36;73.03
74973;BME280;63529;56.320;43.990;2023-02-27T01:13:05;98641.28;;;-0.38;72.88
74973;BME280;63529;56.320;43.990;2023-02-27T01:15:33;98640.03;;;-0.35;72.74
74973;BME280;63529;56.320;43.990;2023-02-27T01:17:59;98648.13;;;-0.37;72.49
74973;BME280;63529;56.320;43.990;2023-02-27T01:20:24;98642.09;;;-0.37;72.39
74973;BME280;63529;56.320;43.990;2023-02-27T01:22:50;98653.38;;;-0.37;72.44
74973;BME280;63529;56.320;43.990;2023-02-27T01:25:16;98643.91;;;-0.38;72.28
74973;BME280;63529;56.320;43.990;2023-02-27T01:27:42;98655.75;;;-0.35;72.20
74973;BME280;63529;56.320;43.990;2023-02-27T01:30:09;98657.00;;;-0.38;72.02
74973;BME280;63529;56.320;43.990;2023-02-27T01:32:37;98661.66;;;-0.40;71.89
74973;BME280;63529;56.320;43.990;2023-02-27T01:35:03;98661.88;;;-0.41;71.95
74973;BME280;63529;56.320;43.990;2023-02-27T01:37:29;98654.81;;;-0.41;71.97
74973;BME280;63529;56.320;43.990;2023-02-27T01:39:55;98660.28;;;-0.42;72.02
74973;BME280;63529;56.320;43.990;2023-02-27T01:42:25;98664.50;;;-0.41;71.91
74973;BME280;63529;56.320;43.990;2023-02-27T01:47:30;98665.28;;;-0.41;72.08
74973;BME280;63529;56.320;43.990;2023-02-27T01:49:56;98672.38;;;-0.41;71.78
74973;BME280;63529;56.320;43.990;2023-02-27T01:52:22;98671.00;;;-0.44;71.77
74973;BME280;63529;56.320;43.990;2023-02-27T01:54:51;98673.00;;;-0.46;71.75
74973;BME280;63529;56.320;43.990;2023-02-27T01:57:17;98681.69;;;-0.45;71.86
74973;BME280;63529;56.320;43.990;2023-02-27T01:59:42;98671.41;;;-0.47;71.51
74973;BME280;63529;56.320;43.990;2023-02-27T02:02:15;98680.88;;;-0.46;71.67
74973;BME280;63529;56.320;43.990;2023-02-27T02:04:43;98695.22;;;-0.48;71.47
74973;BME280;63529;56.320;43.990;2023-02-27T02:07:12;98689.19;;;-0.49;71.46
74973;BME280;63529;56.320;43.990;2023-02-27T02:09:43;98686.00;;;-0.51;71.61
74973;BME280;63529;56.320;43.990;2023-02-27T02:12:12;98699.66;;;-0.49;71.63
74973;BME280;63529;56.320;43.990;2023-02-27T02:14:42;98699.91;;;-0.50;71.45
74973;BME280;63529;56.320;43.990;2023-02-27T02:17:15;98704.91;;;-0.49;71.59
74973;BME280;63529;56.320;43.990;2023-02-27T02:39:41;98716.72;;;-0.58;71.57
74973;BME280;63529;56.320;43.990;2023-02-27T02:47:50;98727.63;;;-0.61;71.73
74973;BME280;63529;56.320;43.990;2023-02-27T02:50:21;98726.81;;;-0.62;71.77
74973;BME280;63529;56.320;43.990;2023-02-27T02:55:51;98740.72;;;-0.61;71.78
74973;BME280;63529;56.320;43.990;2023-02-27T02:58:24;98749.38;;;-0.61;71.48
74973;BME280;63529;56.320;43.990;2023-02-27T03:00:57;98743.56;;;-0.63;71.51
74973;BME280;63529;56.320;43.990;2023-02-27T03:03:30;98746.97;;;-0.62;71.63
74973;BME280;63529;56.320;43.990;2023-02-27T03:06:01;98745.00;;;-0.67;71.61
74973;BME280;63529;56.320;43.990;2023-02-27T03:08:33;98759.06;;;-0.61;71.55
74973;BME280;63529;56.320;43.990;2023-02-27T03:11:02;98765.31;;;-0.62;71.41
74973;BME280;63529;56.320;43.990;2023-02-27T03:16:17;98772.78;;;-0.66;71.40
74973;BME280;63529;56.320;43.990;2023-02-27T03:18:51;98776.81;;;-0.63;71.51
74973;BME280;63529;56.320;43.990;2023-02-27T03:21:25;98776.25;;;-0.65;71.39
74973;BME280;63529;56.320;43.990;2023-02-27T03:23:55;98784.09;;;-0.65;71.67
74973;BME280;63529;56.320;43.990;2023-02-27T03:26:32;98791.34;;;-0.67;71.48
74973;BME280;63529;56.320;43.990;2023-02-27T03:29:07;98790.34;;;-0.66;71.59
74973;BME280;63529;56.320;43.990;2023-02-27T03:31:53;98791.34;;;-0.67;71.69
74973;BME280;63529;56.320;43.990;2023-02-27T03:34:29;98794.78;;;-0.67;71.59
74973;BME280;63529;56.320;43.990;2023-02-27T03:37:13;98793.41;;;-0.69;71.46
74973;BME280;63529;56.320;43.990;2023-02-27T03:39:49;98808.53;;;-0.71;71.69
74973;BME280;63529;56.320;43.990;2023-02-27T03:45:34;98815.22;;;-0.75;71.64
74973;BME280;63529;56.320;43.990;2023-02-27T03:48:03;98821.25;;;-0.75;71.82
74973;BME280;63529;56.320;43.990;2023-02-27T03:50:29;98833.34;;;-0.74;71.89
74973;BME280;63529;56.320;43.990;2023-02-27T03:52:56;98832.53;;;-0.74;71.81
74973;BME280;63529;56.320;43.990;2023-02-27T03:55:33;98829.91;;;-0.74;71.68
74973;BME280;63529;56.320;43.990;2023-02-27T03:58:00;98824.91;;;-0.76;71.84
74973;BME280;63529;56.320;43.990;2023-02-27T04:00:26;98836.75;;;-0.73;71.76
74973;BME280;63529;56.320;43.990;2023-02-27T04:02:55;98836.16;;;-0.75;71.93
74973;BME280;63529;56.320;43.990;2023-02-27T04:05:25;98844.03;;;-0.75;71.72
74973;BME280;63529;56.320;43.990;2023-02-27T04:22:50;98872.22;;;-0.71;71.72
74973;BME280;63529;56.320;43.990;2023-02-27T04:28:14;98884.09;;;-0.68;71.76
74973;BME280;63529;56.320;43.990;2023-02-27T04:31:09;98883.06;;;-0.67;71.56
74973;BME280;63529;56.320;43.990;2023-02-27T04:36:17;98895.94;;;-0.66;71.64
74973;BME280;63529;56.320;43.990;2023-02-27T04:39:14;98910.25;;;-0.62;71.62
74973;BME280;63529;56.320;43.990;2023-02-27T04:41:47;98914.25;;;-0.59;71.36
74973;BME280;63529;56.320;43.990;2023-02-27T04:44:18;98914.84;;;-0.57;71.36
74973;BME280;63529;56.320;43.990;2023-02-27T04:46:46;98917.25;;;-0.56;71.44
74973;BME280;63529;56.320;43.990;2023-02-27T04:49:23;98926.50;;;-0.53;71.23
74973;BME280;63529;56.320;43.990;2023-02-27T04:54:38;98925.06;;;-0.49;71.15
74973;BME280;63529;56.320;43.990;2023-02-27T04:57:09;98930.91;;;-0.47;70.80
74973;BME280;63529;56.320;43.990;2023-02-27T04:59:43;98936.75;;;-0.45;70.92
74973;BME280;63529;56.320;43.990;2023-02-27T05:02:18;98944.97;;;-0.41;70.81
74973;BME280;63529;56.320;43.990;2023-02-27T05:04:55;98938.72;;;-0.40;70.90
74973;BME280;63529;56.320;43.990;2023-02-27T05:07:26;98942.75;;;-0.38;70.55
74973;BME280;63529;56.320;43.990;2023-02-27T05:09:58;98943.91;;;-0.34;70.70
74973;BME280;63529;56.320;43.990;2023-02-27T05:12:37;98949.75;;;-0.32;70.62
74973;BME280;63529;56.320;43.990;2023-02-27T05:20:16;98954.16;;;-0.25;70.50
74973;BME280;63529;56.320;43.990;2023-02-27T05:23:13;98962.59;;;-0.23;70.44
74973;BME280;63529;56.320;43.990;2023-02-27T05:25:58;98963.19;;;-0.21;70.12
74973;BME280;63529;56.320;43.990;2023-02-27T05:28:44;98974.28;;;-0.19;70.31
74973;BME280;63529;56.320;43.990;2023-02-27T05:34:26;98971.34;;;-0.05;70.22
74973;BME280;63529;56.320;43.990;2023-02-27T05:36:56;98975.50;;;0.03;70.17
74973;BME280;63529;56.320;43.990;2023-02-27T05:39:28;98983.53;;;0.08;69.76
74973;BME280;63529;56.320;43.990;2023-02-27T05:42:08;98982.25;;;0.17;69.64
74973;BME280;63529;56.320;43.990;2023-02-27T05:44:40;98985.03;;;0.22;69.51
74973;BME280;63529;56.320;43.990;2023-02-27T05:47:11;98999.53;;;0.25;69.55
74973;BME280;63529;56.320;43.990;2023-02-27T05:49:44;99005.16;;;0.29;69.32
74973;BME280;63529;56.320;43.990;2023-02-27T05:52:15;99004.94;;;0.30;69.27
74973;BME280;63529;56.320;43.990;2023-02-27T05:57:44;99013.56;;;0.37;69.03
74973;BME280;63529;56.320;43.990;2023-02-27T06:00:27;99020.00;;;0.41;68.84
74973;BME280;63529;56.320;43.990;2023-02-27T06:02:55;99014.31;;;0.44;68.94
74973;BME280;63529;56.320;43.990;2023-02-27T06:05:24;99019.50;;;0.51;68.96
74973;BME280;63529;56.320;43.990;2023-02-27T06:07:51;99027.97;;;0.53;68.75
74973;BME280;63529;56.320;43.990;2023-02-27T06:10:19;99023.31;;;0.55;68.47
74973;BME280;63529;56.320;43.990;2023-02-27T06:12:45;99038.81;;;0.57;68.09
74973;BME280;63529;56.320;43.990;2023-02-27T06:15:12;99041.69;;;0.55;67.92
74973;BME280;63529;56.320;43.990;2023-02-27T06:17:39;99042.47;;;0.56;67.79
74973;BME280;63529;56.320;43.990;2023-02-27T06:20:07;99047.28;;;0.59;68.00
74973;BME280;63529;56.320;43.990;2023-02-27T06:22:34;99041.41;;;0.63;68.10
74973;BME280;63529;56.320;43.990;2023-02-27T06:25:04;99053.25;;;0.72;67.61
74973;BME280;63529;56.320;43.990;2023-02-27T06:27:30;99042.22;;;0.82;67.43
74973;BME280;63529;56.320;43.990;2023-02-27T06:29:56;99051.41;;;0.91;67.67
74973;BME280;63529;56.320;43.990;2023-02-27T06:32:22;99052.38;;;0.97;67.30
74973;BME280;63529;56.320;43.990;2023-02-27T06:34:50;99052.16;;;0.98;66.94
74973;BME280;63529;56.320;43.990;2023-02-27T06:37:17;99054.00;;;0.98;66.61
74973;BME280;63529;56.320;43.990;2023-02-27T06:39:43;99056.97;;;1.01;66.81
74973;BME280;63529;56.320;43.990;2023-02-27T06:42:09;99057.13;;;1.06;66.44
74973;BME280;63529;56.320;43.990;2023-02-27T06:44:34;99064.34;;;1.11;66.15
74973;BME280;63529;56.320;43.990;2023-02-27T06:47:01;99071.63;;;1.09;66.17
74973;BME280;63529;56.320;43.990;2023-02-27T06:49:26;99069.00;;;1.09;66.03
74973;BME280;63529;56.320;43.990;2023-02-27T06:51:52;99067.25;;;1.03;65.98
74973;BME280;63529;56.320;43.990;2023-02-27T06:54:18;99087.84;;;1.06;65.85
74973;BME280;63529;56.320;43.990;2023-02-27T06:56:44;99079.16;;;1.05;65.88
74973;BME280;63529;56.320;43.990;2023-02-27T06:59:10;99082.16;;;1.09;65.93
74973;BME280;63529;56.320;43.990;2023-02-27T07:01:36;99091.63;;;1.10;65.73
74973;BME280;63529;56.320;43.990;2023-02-27T07:04:02;99095.28;;;1.09;65.56
74973;BME280;63529;56.320;43.990;2023-02-27T07:06:29;99087.78;;;1.13;65.80
74973;BME280;63529;56.320;43.990;2023-02-27T07:08:55;99099.09;;;1.13;65.57
74973;BME280;63529;56.320;43.990;2023-02-27T07:11:21;99095.00;;;1.17;65.25
74973;BME280;63529;56.320;43.990;2023-02-27T07:13:47;99093.53;;;1.21;65.12
74973;BME280;63529;56.320;43.990;2023-02-27T07:16:13;99089.81;;;1.29;65.26
74973;BME280;63529;56.320;43.990;2023-02-27T07:18:39;99098.06;;;1.32;65.39
74973;BME280;63529;56.320;43.990;2023-02-27T07:21:06;99101.50;;;1.33;64.79
74973;BME280;63529;56.320;43.990;2023-02-27T07:23:32;99110.78;;;1.35;64.83
74973;BME280;63529;56.320;43.990;2023-02-27T07:25:58;99115.59;;;1.39;64.81
74973;BME280;63529;56.320;43.990;2023-02-27T07:28:24;99124.44;;;1.44;64.94
74973;BME280;63529;56.320;43.990;2023-02-27T07:30:52;99116.09;;;1.47;64.63
74973;BME280;63529;56.320;43.990;2023-02-27T07:33:18;99115.69;;;1.50;64.83
74973;BME280;63529;56.320;43.990;2023-02-27T07:35:44;99115.38;;;1.58;64.80
74973;BME280;63529;56.320;43.990;2023-02-27T07:38:10;99123.75;;;1.67;64.72
74973;BME280;63529;56.320;43.990;2023-02-27T07:40:36;99111.53;;;1.73;64.42
74973;BME280;63529;56.320;43.990;2023-02-27T07:43:02;99115.69;;;1.80;64.02
74973;BME280;63529;56.320;43.990;2023-02-27T07:45:28;99125.78;;;1.83;63.67
74973;BME280;63529;56.320;43.990;2023-02-27T07:47:54;99129.56;;;1.87;63.57
74973;BME280;63529;56.320;43.990;2023-02-27T07:50:20;99129.13;;;1.90;63.49
74973;BME280;63529;56.320;43.990;2023-02-27T07:52:45;99142.44;;;1.96;63.50
74973;BME280;63529;56.320;43.990;2023-02-27T07:55:14;99150.44;;;2.01;63.33
74973;BME280;63529;56.320;43.990;2023-02-27T07:57:40;99150.81;;;2.04;63.34
74973;BME280;63529;56.320;43.990;2023-02-27T08:00:06;99155.41;;;2.09;63.28
74973;BME280;63529;56.320;43.990;2023-02-27T08:02:40;99162.47;;;2.08;63.12
74973;BME280;63529;56.320;43.990;2023-02-27T08:05:06;99169.22;;;2.04;62.99
74973;BME280;63529;56.320;43.990;2023-02-27T08:07:32;99172.09;;;2.03;63.05
74973;BME280;63529;56.320;43.990;2023-02-27T08:09:58;99170.69;;;2.00;62.92
74973;BME280;63529;56.320;43.990;2023-02-27T08:12:24;99176.41;;;1.97;62.86
74973;BME280;63529;56.320;43.990;2023-02-27T08:14:50;99181.31;;;1.94;63.16
74973;BME280;63529;56.320;43.990;2023-02-27T08:17:19;99189.19;;;1.94;62.98
74973;BME280;63529;56.320;43.990;2023-02-27T08:19:50;99189.66;;;1.90;63.16
74973;BME280;63529;56.320;43.990;2023-02-27T08:22:16;99204.03;;;1.88;62.94
74973;BME280;63529;56.320;43.990;2023-02-27T08:24:54;99193.97;;;1.85;63.42
74973;BME280;63529;56.320;43.990;2023-02-27T08:27:20;99212.63;;;1.83;62.91
74973;BME280;63529;56.320;43.990;2023-02-27T08:29:46;99199.66;;;1.82;63.27
74973;BME280;63529;56.320;43.990;2023-02-27T08:32:12;99209.19;;;1.83;63.04
74973;BME280;63529;56.320;43.990;2023-02-27T08:34:38;99217.88;;;1.83;62.87
74973;BME280;63529;56.320;43.990;2023-02-27T08:37:04;99222.69;;;1.86;62.72
74973;BME280;63529;56.320;43.990;2023-02-27T08:39:30;99228.97;;;1.85;62.83
74973;BME280;63529;56.320;43.990;2023-02-27T08:41:56;99234.38;;;1.90;62.67
74973;BME280;63529;56.320;43.990;2023-02-27T08:44:22;99234.38;;;1.90;62.85
74973;BME280;63529;56.320;43.990;2023-02-27T08:46:48;99240.44;;;1.91;62.69
74973;BME280;63529;56.320;43.990;2023-02-27T08:49:14;99240.31;;;1.86;62.63
74973;BME280;63529;56.320;43.990;2023-02-27T08:51:40;99245.34;;;1.87;62.57
74973;BME280;63529;56.320;43.990;2023-02-27T08:54:06;99249.56;;;1.88;62.38
74973;BME280;63529;56.320;43.990;2023-02-27T08:56:32;99250.59;;;1.87;62.47
74973;BME280;63529;56.320;43.990;2023-02-27T08:59:00;99263.97;;;1.86;62.50
74973;BME280;63529;56.320;43.990;2023-02-27T09:01:26;99263.59;;;1.82;62.51
74973;BME280;63529;56.320;43.990;2023-02-27T09:04:03;99257.19;;;1.78;62.52
74973;BME280;63529;56.320;43.990;2023-02-27T09:06:30;99270.56;;;1.77;62.98
74973;BME280;63529;56.320;43.990;2023-02-27T09:08:57;99267.13;;;1.76;62.37
74973;BME280;63529;56.320;43.990;2023-02-27T09:11:24;99260.25;;;1.75;62.54
74973;BME280;63529;56.320;43.990;2023-02-27T09:13:51;99277.22;;;1.79;62.42
74973;BME280;63529;56.320;43.990;2023-02-27T09:16:18;99279.25;;;1.77;62.55
74973;BME280;63529;56.320;43.990;2023-02-27T09:18:44;99277.66;;;1.76;62.45
74973;BME280;63529;56.320;43.990;2023-02-27T09:21:10;99276.47;;;1.72;62.70
74973;BME280;63529;56.320;43.990;2023-02-27T09:23:37;99282.16;;;1.69;62.38
74973;BME280;63529;56.320;43.990;2023-02-27T09:26:03;99285.47;;;1.65;62.55
74973;BME280;63529;56.320;43.990;2023-02-27T09:28:30;99287.72;;;1.61;62.86
74973;BME280;63529;56.320;43.990;2023-02-27T09:31:02;99285.53;;;1.58;62.73
74973;BME280;63529;56.320;43.990;2023-02-27T09:33:31;99291.34;;;1.60;63.02
74973;BME280;63529;56.320;43.990;2023-02-27T09:35:57;99295.00;;;1.59;62.63
74973;BME280;63529;56.320;43.990;2023-02-27T09:38:24;99303.94;;;1.58;62.98
74973;BME280;63529;56.320;43.990;2023-02-27T09:40:51;99298.06;;;1.56;62.77
74973;BME280;63529;56.320;43.990;2023-02-27T09:45:51;99311.44;;;1.54;62.99
74973;BME280;63529;56.320;43.990;2023-02-27T09:48:29;99307.19;;;1.53;63.20
74973;BME280;63529;56.320;43.990;2023-02-27T09:50:58;99309.25;;;1.51;63.49
74973;BME280;63529;56.320;43.990;2023-02-27T09:53:38;99314.50;;;1.51;63.41
74973;BME280;63529;56.320;43.990;2023-02-27T10:04:58;99316.59;;;1.43;63.39
74973;BME280;63529;56.320;43.990;2023-02-27T10:07:39;99317.84;;;1.40;63.65
74973;BME280;63529;56.320;43.990;2023-02-27T10:12:52;99313.00;;;1.37;63.83
74973;BME280;63529;56.320;43.990;2023-02-27T10:17:58;99313.44;;;1.34;64.06
74973;BME280;63529;56.320;43.990;2023-02-27T10:20:26;99323.94;;;1.34;63.81
74973;BME280;63529;56.320;43.990;2023-02-27T10:22:54;99326.22;;;1.30;63.98
74973;BME280;63529;56.320;43.990;2023-02-27T10:25:22;99326.22;;;1.30;63.62
74973;BME280;63529;56.320;43.990;2023-02-27T10:27:49;99323.81;;;1.22;63.78
74973;BME280;63529;56.320;43.990;2023-02-27T10:30:26;99327.66;;;1.26;63.73
74973;BME280;63529;56.320;43.990;2023-02-27T10:33:11;99333.31;;;1.23;64.05
74973;BME280;63529;56.320;43.990;2023-02-27T10:35:40;99330.31;;;1.20;64.09
74973;BME280;63529;56.320;43.990;2023-02-27T10:38:11;99336.97;;;1.22;63.91
74973;BME280;63529;56.320;43.990;2023-02-27T10:40:40;99336.97;;;1.22;64.08
74973;BME280;63529;56.320;43.990;2023-02-27T10:43:07;99343.03;;;1.23;63.50
74973;BME280;63529;56.320;43.990;2023-02-27T10:45:33;99346.69;;;1.22;63.63
74973;BME280;63529;56.320;43.990;2023-02-27T10:48:01;99346.72;;;1.15;63.86
74973;BME280;63529;56.320;43.990;2023-02-27T10:50:33;99351.97;;;1.15;64.08
74973;BME280;63529;56.320;43.990;2023-02-27T10:53:03;99354.81;;;1.14;63.80
74973;BME280;63529;56.320;43.990;2023-02-27T10:55:33;99357.06;;;1.10;64.14
74973;BME280;63529;56.320;43.990;2023-02-27T10:58:01;99351.81;;;1.10;63.98
74973;BME280;63529;56.320;43.990;2023-02-27T11:00:44;99357.50;;;1.07;64.16
74973;BME280;63529;56.320;43.990;2023-02-27T11:03:22;99359.50;;;1.12;64.15
74973;BME280;63529;56.320;43.990;2023-02-27T11:05:58;99361.09;;;1.13;64.33
74973;BME280;63529;56.320;43.990;2023-02-27T11:08:27;99359.06;;;1.15;63.97
74973;BME280;63529;56.320;43.990;2023-02-27T11:10:55;99363.50;;;1.14;64.17
74973;BME280;63529;56.320;43.990;2023-02-27T11:13:23;99362.94;;;1.12;64.20
74973;BME280;63529;56.320;43.990;2023-02-27T11:18:30;99360.94;;;1.07;64.35
74973;BME280;63529;56.320;43.990;2023-02-27T11:23:38;99364.94;;;1.10;64.43
74973;BME280;63529;56.320;43.990;2023-02-27T11:26:53;99362.31;;;1.10;64.27
74973;BME280;63529;56.320;43.990;2023-02-27T11:29:11;99369.63;;;1.08;64.39
74973;BME280;63529;56.320;43.990;2023-02-27T11:31:49;99372.81;;;1.10;64.36
74973;BME280;63529;56.320;43.990;2023-02-27T11:36:49;99377.09;;;1.11;64.38
74973;BME280;63529;56.320;43.990;2023-02-27T11:39:29;99372.81;;;1.10;64.46
74973;BME280;63529;56.320;43.990;2023-02-27T11:41:57;99380.72;;;1.10;64.39
74973;BME280;63529;56.320;43.990;2023-02-27T11:44:26;99376.13;;;1.05;64.65
74973;BME280;63529;56.320;43.990;2023-02-27T11:47:35;99379.53;;;1.06;64.45
74973;BME280;63529;56.320;43.990;2023-02-27T11:55:31;99388.84;;;1.02;64.78
74973;BME280;63529;56.320;43.990;2023-02-27T11:58:09;99384.03;;;0.99;64.70
74973;BME280;63529;56.320;43.990;2023-02-27T12:00:44;99387.69;;;0.98;64.82
74973;BME280;63529;56.320;43.990;2023-02-27T12:03:28;99389.47;;;0.97;64.56
74973;BME280;63529;56.320;43.990;2023-02-27T12:06:20;99394.16;;;0.95;64.75
74973;BME280;63529;56.320;43.990;2023-02-27T12:08:59;99387.28;;;0.94;64.83
74973;BME280;63529;56.320;43.990;2023-02-27T12:16:36;99393.78;;;0.92;65.06
74973;BME280;63529;56.320;43.990;2023-02-27T12:19:14;99401.66;;;0.92;64.88
74973;BME280;63529;56.320;43.990;2023-02-27T12:21:46;99401.03;;;0.90;64.82
74973;BME280;63529;56.320;43.990;2023-02-27T12:24:30;99402.88;;;0.89;65.14
74973;BME280;63529;56.320;43.990;2023-02-27T12:29:44;99404.69;;;0.89;65.21
74973;BME280;63529;56.320;43.990;2023-02-27T12:32:24;99405.72;;;0.88;64.81
74973;BME280;63529;56.320;43.990;2023-02-27T12:35:00;99418.03;;;0.87;65.14
74973;BME280;63529;56.320;43.990;2023-02-27T12:37:30;99416.44;;;0.86;65.02
74973;BME280;63529;56.320;43.990;2023-02-27T12:39:59;99421.28;;;0.82;65.15
74973;BME280;63529;56.320;43.990;2023-02-27T12:43:04;99417.03;;;0.81;65.13
74973;BME280;63529;56.320;43.990;2023-02-27T12:56:18;99419.28;;;0.71;65.19
74973;BME280;63529;56.320;43.990;2023-02-27T13:03:58;99419.53;;;0.63;65.93
74973;BME280;63529;56.320;43.990;2023-02-27T13:06:32;99421.56;;;0.61;65.63
74973;BME280;63529;56.320;43.990;2023-02-27T13:17:38;99430.69;;;0.45;66.06
74973;BME280;63529;56.320;43.990;2023-02-27T13:20:37;99429.69;;;0.46;66.32
74973;BME280;63529;56.320;43.990;2023-02-27T13:25:41;99441.63;;;0.42;66.48
74973;BME280;63529;56.320;43.990;2023-02-27T13:28:13;99437.59;;;0.40;66.80
74973;BME280;63529;56.320;43.990;2023-02-27T13:31:25;99435.38;;;0.37;66.53
74973;BME280;63529;56.320;43.990;2023-02-27T13:33:49;99441.84;;;0.34;66.59
74973;BME280;63529;56.320;43.990;2023-02-27T13:36:28;99444.28;;;0.29;66.95
74973;BME280;63529;56.320;43.990;2023-02-27T13:38:56;99439.03;;;0.22;67.01
74973;BME280;63529;56.320;43.990;2023-02-27T13:43:58;99449.91;;;0.19;67.38
74973;BME280;63529;56.320;43.990;2023-02-27T13:46:32;99446.69;;;0.17;67.38
74973;BME280;63529;56.320;43.990;2023-02-27T13:56:44;99453.78;;;0.10;67.59
74973;BME280;63529;56.320;43.990;2023-02-27T14:04:28;99468.91;;;0.08;67.77
74973;BME280;63529;56.320;43.990;2023-02-27T14:07:00;99460.63;;;0.05;67.63
74973;BME280;63529;56.320;43.990;2023-02-27T14:09:33;99468.72;;;0.03;67.99
74973;BME280;63529;56.320;43.990;2023-02-27T14:12:02;99463.06;;;-0.01;68.09
74973;BME280;63529;56.320;43.990;2023-02-27T14:17:08;99457.81;;;-0.07;68.10
74973;BME280;63529;56.320;43.990;2023-02-27T14:25:10;99462.66;;;-0.17;68.28
74973;BME280;63529;56.320;43.990;2023-02-27T14:27:53;99460.63;;;-0.22;68.44
74973;BME280;63529;56.320;43.990;2023-02-27T14:30:25;99463.47;;;-0.23;68.60
74973;BME280;63529;56.320;43.990;2023-02-27T14:33:04;99461.22;;;-0.27;68.88
74973;BME280;63529;56.320;43.990;2023-02-27T14:35:32;99464.88;;;-0.28;68.81
74973;BME280;63529;56.320;43.990;2023-02-27T14:38:02;99476.38;;;-0.29;68.92
74973;BME280;63529;56.320;43.990;2023-02-27T14:40:38;99470.53;;;-0.31;68.95
74973;BME280;63529;56.320;43.990;2023-02-27T14:43:28;99480.19;;;-0.31;68.87
74973;BME280;63529;56.320;43.990;2023-02-27T14:46:05;99470.72;;;-0.39;68.99
74973;BME280;63529;56.320;43.990;2023-02-27T14:48:31;99479.56;;;-0.40;68.96
74973;BME280;63529;56.320;43.990;2023-02-27T14:51:00;99479.16;;;-0.43;69.29
74973;BME280;63529;56.320;43.990;2023-02-27T14:53:26;99482.97;;;-0.46;69.32
74973;BME280;63529;56.320;43.990;2023-02-27T14:55:54;99493.47;;;-0.46;69.26
74973;BME280;63529;56.320;43.990;2023-02-27T14:58:21;99494.09;;;-0.50;69.36
74973;BME280;63529;56.320;43.990;2023-02-27T15:00:57;99496.69;;;-0.50;69.74
74973;BME280;63529;56.320;43.990;2023-02-27T15:03:39;99490.81;;;-0.52;69.42
74973;BME280;63529;56.320;43.990;2023-02-27T15:06:16;99504.34;;;-0.56;69.38
74973;BME280;63529;56.320;43.990;2023-02-27T15:08:46;99503.13;;;-0.60;69.60
74973;BME280;63529;56.320;43.990;2023-02-27T15:11:16;99515.41;;;-0.60;69.61
74973;BME280;63529;56.320;43.990;2023-02-27T15:13:44;99509.78;;;-0.64;69.74
74973;BME280;63529;56.320;43.990;2023-02-27T15:18:51;99518.00;;;-0.67;69.80
74973;BME280;63529;56.320;43.990;2023-02-27T15:21:19;99512.16;;;-0.69;69.94
74973;BME280;63529;56.320;43.990;2023-02-27T15:23:56;99516.41;;;-0.68;69.91
74973;BME280;63529;56.320;43.990;2023-02-27T15:26:22;99509.94;;;-0.72;70.16
74973;BME280;63529;56.320;43.990;2023-02-27T15:28:49;99518.63;;;-0.71;70.22
74973;BME280;63529;56.320;43.990;2023-02-27T15:31:21;99518.78;;;-0.73;70.35
74973;BME280;63529;56.320;43.990;2023-02-27T15:33:48;99533.72;;;-0.73;70.22
74973;BME280;63529;56.320;43.990;2023-02-27T15:36:23;99531.91;;;-0.73;70.36
74973;BME280;63529;56.320;43.990;2023-02-27T15:39:16;99533.91;;;-0.75;70.35
74973;BME280;63529;56.320;43.990;2023-02-27T15:41:45;99538.34;;;-0.75;70.54
74973;BME280;63529;56.320;43.990;2023-02-27T15:44:15;99536.94;;;-0.78;70.62
74973;BME280;63529;56.320;43.990;2023-02-27T15:46:43;99544.16;;;-0.80;70.62
74973;BME280;63529;56.320;43.990;2023-02-27T15:49:16;99535.69;;;-0.82;70.83
74973;BME280;63529;56.320;43.990;2023-02-27T15:51:43;99545.97;;;-0.80;70.75
74973;BME280;63529;56.320;43.990;2023-02-27T15:54:12;99547.00;;;-0.82;70.74
74973;BME280;63529;56.320;43.990;2023-02-27T15:56:38;99544.56;;;-0.83;70.86